createdAt,value
2019-02-14T00:01:47.321Z,-0.03
2019-02-14T00:04:16.173Z,0.01
2019-02-14T00:06:45.087Z,-0.03
2019-02-14T00:09:13.896Z,-0.16
2019-02-14T00:11:42.709Z,-0.27
2019-02-14T00:14:11.569Z,-0.39
2019-02-14T00:16:40.411Z,-0.43
2019-02-14T00:19:09.204Z,-0.53
2019-02-14T00:21:38.000Z,-0.68
2019-02-14T00:24:06.811Z,-0.77
2019-02-14T00:26:35.615Z,-0.87
2019-02-14T00:29:04.475Z,-0.88
2019-02-14T00:31:33.282Z,-0.93
2019-02-14T00:34:02.081Z,-0.90
2019-02-14T00:36:30.918Z,-0.91
2019-02-14T00:38:59.849Z,-1.09
2019-02-14T00:41:28.865Z,-1.11
2019-02-14T00:43:57.673Z,-1.17
2019-02-14T00:46:26.626Z,-1.20
2019-02-14T00:48:55.429Z,-1.23
2019-02-14T00:51:24.268Z,-1.21
2019-02-14T00:53:53.056Z,-1.16
2019-02-14T00:56:21.856Z,-1.18
2019-02-14T00:58:50.663Z,-1.13
2019-02-14T01:01:20.296Z,-1.13
2019-02-14T01:03:49.166Z,-1.11
2019-02-14T01:06:18.060Z,-0.99
2019-02-14T01:08:46.942Z,-1.00
2019-02-14T01:11:15.808Z,-0.92
2019-02-14T01:13:44.623Z,-0.79
2019-02-14T01:16:13.422Z,-0.66
2019-02-14T01:18:42.227Z,-0.66
2019-02-14T01:21:11.204Z,-0.68
2019-02-14T01:23:40.011Z,-0.73
2019-02-14T01:26:08.904Z,-0.84
2019-02-14T01:28:37.798Z,-0.95
2019-02-14T01:31:06.681Z,-0.83
2019-02-14T01:33:35.489Z,-0.89
2019-02-14T01:36:04.366Z,-0.88
2019-02-14T01:38:33.183Z,-1.03
2019-02-14T01:41:02.055Z,-1.13
2019-02-14T01:43:31.008Z,-1.24
2019-02-14T01:45:59.800Z,-1.29
2019-02-14T01:48:28.633Z,-1.28
2019-02-14T01:50:57.415Z,-1.10
2019-02-14T01:53:26.217Z,-0.89
2019-02-14T01:55:55.013Z,-0.69
2019-02-14T01:58:23.894Z,-0.60
2019-02-14T02:00:52.767Z,-0.54
2019-02-14T02:03:21.965Z,-0.52
2019-02-14T02:05:51.164Z,-0.37
2019-02-14T02:08:20.203Z,-0.46
2019-02-14T02:10:48.979Z,-0.69
2019-02-14T02:13:17.822Z,-0.65
2019-02-14T02:15:46.598Z,-0.86
2019-02-14T02:18:15.374Z,-1.05
2019-02-14T02:20:44.201Z,-1.19
2019-02-14T02:23:12.985Z,-1.40
2019-02-14T02:25:41.757Z,-1.60
2019-02-14T02:28:10.608Z,-1.60
2019-02-14T02:30:39.392Z,-1.68
2019-02-14T02:33:08.153Z,-1.66
2019-02-14T02:35:36.932Z,-1.66
2019-02-14T02:38:05.715Z,-1.63
2019-02-14T02:40:34.620Z,-1.36
2019-02-14T02:43:03.393Z,-1.57
2019-02-14T02:45:32.173Z,-1.70
2019-02-14T02:48:00.958Z,-1.82
2019-02-14T02:50:29.760Z,-1.84
2019-02-14T02:52:58.544Z,-1.83
2019-02-14T02:55:27.341Z,-1.94
2019-02-14T02:57:56.126Z,-1.91
2019-02-14T03:00:24.999Z,-1.85
2019-02-14T03:02:53.753Z,-1.85
2019-02-14T03:05:22.536Z,-1.91
2019-02-14T03:07:51.386Z,-1.85
2019-02-14T03:10:20.181Z,-1.75
2019-02-14T03:12:48.957Z,-1.76
2019-02-14T03:15:17.901Z,-1.48
2019-02-14T03:17:46.692Z,-1.28
2019-02-14T03:20:15.533Z,-1.13
2019-02-14T03:22:44.325Z,-1.12
2019-02-14T03:25:15.296Z,-1.16
2019-02-14T03:27:44.098Z,-1.10
2019-02-14T03:30:13.804Z,-1.05
2019-02-14T03:32:42.907Z,-1.25
2019-02-14T03:35:11.917Z,-1.39
2019-02-14T03:37:40.827Z,-1.59
2019-02-14T03:40:10.979Z,-1.70
2019-02-14T03:42:39.978Z,-1.70
2019-02-14T03:45:12.014Z,-1.72
2019-02-14T03:47:40.793Z,-1.92
2019-02-14T03:50:09.716Z,-1.86
2019-02-14T03:52:38.669Z,-1.84
2019-02-14T03:55:08.139Z,-1.88
2019-02-14T03:57:37.175Z,-1.86
2019-02-14T04:00:09.378Z,-1.90
2019-02-14T04:02:38.524Z,-1.91
2019-02-14T04:05:07.635Z,-2.25
2019-02-14T04:07:36.404Z,-2.22
2019-02-14T04:10:05.959Z,-1.81
2019-02-14T04:12:35.321Z,-1.70
2019-02-14T04:15:04.589Z,-1.67
2019-02-14T04:17:33.355Z,-1.65
2019-02-14T04:20:02.141Z,-1.74
2019-02-14T04:22:31.040Z,-1.95
2019-02-14T04:24:59.905Z,-2.02
2019-02-14T04:27:28.672Z,-1.92
2019-02-14T04:29:57.510Z,-1.82
2019-02-14T04:32:26.655Z,-1.67
2019-02-14T04:34:55.522Z,-1.47
2019-02-14T04:37:24.408Z,-1.45
2019-02-14T04:39:53.278Z,-1.56
2019-02-14T04:42:22.356Z,-1.67
2019-02-14T04:44:51.207Z,-1.83
2019-02-14T04:47:20.012Z,-1.71
2019-02-14T04:49:48.820Z,-1.63
2019-02-14T04:52:17.735Z,-1.64
2019-02-14T04:54:46.567Z,-1.87
2019-02-14T04:57:15.402Z,-1.95
2019-02-14T04:59:44.206Z,-2.09
2019-02-14T05:02:13.026Z,-2.16
2019-02-14T05:04:41.890Z,-2.25
2019-02-14T05:07:10.775Z,-2.35
2019-02-14T05:09:39.589Z,-2.26
2019-02-14T05:12:08.389Z,-2.19
2019-02-14T05:14:37.187Z,-2.09
2019-02-14T05:17:06.015Z,-2.11
2019-02-14T05:19:34.907Z,-2.10
2019-02-14T05:22:03.848Z,-2.02
2019-02-14T05:24:32.667Z,-2.04
2019-02-14T05:27:01.486Z,-2.18
2019-02-14T05:29:30.284Z,-2.14
2019-02-14T05:31:59.098Z,-2.37
2019-02-14T05:34:28.741Z,-2.49
2019-02-14T05:36:57.556Z,-2.46
2019-02-14T05:39:27.556Z,-2.33
2019-02-14T05:41:56.317Z,-2.12
2019-02-14T05:44:25.113Z,-2.00
2019-02-14T05:46:53.913Z,-1.92
2019-02-14T05:49:22.698Z,-1.69
2019-02-14T05:51:51.496Z,-1.74
2019-02-14T05:54:20.307Z,-1.71
2019-02-14T05:56:49.138Z,-1.79
2019-02-14T05:59:18.007Z,-1.88
2019-02-14T06:01:46.876Z,-2.00
2019-02-14T06:04:15.667Z,-2.31
2019-02-14T06:06:44.593Z,-2.31
2019-02-14T06:09:13.401Z,-2.22
2019-02-14T06:11:42.194Z,-2.24
2019-02-14T06:14:11.090Z,-2.28
2019-02-14T06:16:39.884Z,-2.34
2019-02-14T06:19:08.717Z,-2.38
2019-02-14T06:21:37.591Z,-2.40
2019-02-14T06:24:06.409Z,-2.52
2019-02-14T06:26:35.207Z,-2.70
2019-02-14T06:29:04.089Z,-2.76
2019-02-14T06:31:32.884Z,-2.76
2019-02-14T06:34:01.908Z,-2.70
2019-02-14T06:36:30.982Z,-2.68
2019-02-14T06:38:59.875Z,-2.73
2019-02-14T06:41:28.699Z,-2.72
2019-02-14T06:43:57.502Z,-2.74
2019-02-14T06:46:26.289Z,-2.67
2019-02-14T06:48:55.257Z,-2.64
2019-02-14T06:51:24.042Z,-2.71
2019-02-14T06:53:52.935Z,-2.82
2019-02-14T06:56:21.729Z,-2.81
2019-02-14T06:58:50.532Z,-2.72
2019-02-14T07:01:19.328Z,-2.58
2019-02-14T07:03:48.223Z,-2.18
2019-02-14T07:06:17.017Z,-2.14
2019-02-14T07:08:45.844Z,-2.03
2019-02-14T07:11:14.637Z,-2.03
2019-02-14T07:13:43.550Z,-2.08
2019-02-14T07:16:12.441Z,-2.08
2019-02-14T07:18:41.250Z,-2.03
2019-02-14T07:21:10.048Z,-2.12
2019-02-14T07:23:38.855Z,-2.08
2019-02-14T07:26:07.660Z,-2.08
2019-02-14T07:28:36.547Z,-1.96
2019-02-14T07:31:05.525Z,-2.01
2019-02-14T07:33:34.327Z,-2.00
2019-02-14T07:36:03.126Z,-1.90
2019-02-14T07:38:31.931Z,-1.94
2019-02-14T07:41:00.739Z,-1.77
2019-02-14T07:43:29.603Z,-1.65
2019-02-14T07:45:58.490Z,-1.42
2019-02-14T07:48:27.300Z,-1.34
2019-02-14T07:50:56.107Z,-1.18
2019-02-14T07:53:24.989Z,-1.10
2019-02-14T07:55:53.803Z,-1.02
2019-02-14T07:58:22.675Z,-0.84
2019-02-14T08:00:51.543Z,-0.63
2019-02-14T08:03:20.399Z,-0.43
2019-02-14T08:05:49.210Z,-0.18
2019-02-14T08:08:18.055Z,-0.03
2019-02-14T08:10:46.928Z,0.20
2019-02-14T08:13:15.719Z,0.21
2019-02-14T08:15:44.618Z,0.09
2019-02-14T08:18:13.436Z,0.16
2019-02-14T08:20:42.224Z,0.16
2019-02-14T08:23:11.051Z,0.28
2019-02-14T08:25:39.859Z,0.41
2019-02-14T08:28:08.746Z,0.50
2019-02-14T08:30:37.553Z,0.58
2019-02-14T08:33:06.421Z,0.51
2019-02-14T08:35:35.458Z,0.64
2019-02-14T08:38:05.118Z,0.69
2019-02-14T08:40:33.998Z,0.75
2019-02-14T08:43:02.993Z,0.87
2019-02-14T08:45:31.882Z,1.04
2019-02-14T08:48:00.782Z,1.21
2019-02-14T08:50:29.649Z,1.24
2019-02-14T08:52:58.458Z,1.42
2019-02-14T08:55:27.244Z,1.66
2019-02-14T08:57:56.047Z,1.76
2019-02-14T09:00:24.933Z,1.94
2019-02-14T09:02:53.754Z,2.16
2019-02-14T09:05:22.566Z,2.02
2019-02-14T09:07:54.605Z,1.92
2019-02-14T09:10:21.910Z,2.22
2019-02-14T09:12:50.897Z,2.11
2019-02-14T09:15:19.795Z,2.06
2019-02-14T09:17:48.607Z,2.25
2019-02-14T09:20:17.528Z,2.32
2019-02-14T09:22:46.407Z,2.39
2019-02-14T09:25:15.198Z,2.33
2019-02-14T09:27:44.132Z,2.34
2019-02-14T09:30:13.164Z,2.43
2019-02-14T09:32:42.179Z,2.41
2019-02-14T09:35:11.247Z,2.53
2019-02-14T09:37:40.123Z,2.46
2019-02-14T09:40:10.214Z,2.52
2019-02-14T09:42:39.022Z,2.57
2019-02-14T09:45:09.838Z,2.67
2019-02-14T09:47:38.614Z,2.90
2019-02-14T09:50:08.656Z,2.95
2019-02-14T09:52:37.559Z,2.98
2019-02-14T09:55:06.950Z,3.08
2019-02-14T09:57:35.749Z,3.22
2019-02-14T10:00:05.175Z,3.27
2019-02-14T10:02:33.971Z,3.34
2019-02-14T10:05:02.764Z,3.48
2019-02-14T10:07:31.569Z,3.62
2019-02-14T10:10:03.174Z,3.79
2019-02-14T10:12:31.936Z,3.96
2019-02-14T10:15:00.732Z,4.08
2019-02-14T10:17:29.624Z,4.13
2019-02-14T10:19:58.449Z,4.35
2019-02-14T10:22:27.316Z,4.49
2019-02-14T10:24:56.118Z,4.44
2019-02-14T10:27:25.077Z,4.61
2019-02-14T10:29:53.907Z,4.82
2019-02-14T10:32:22.699Z,4.82
2019-02-14T10:34:51.476Z,4.80
2019-02-14T10:37:20.293Z,4.82
2019-02-14T10:39:49.077Z,4.85
2019-02-14T10:42:17.876Z,5.04
2019-02-14T10:44:46.760Z,5.26
2019-02-14T10:47:15.728Z,5.39
2019-02-14T10:49:44.535Z,5.53
2019-02-14T10:52:13.350Z,5.84
2019-02-14T10:54:42.313Z,6.28
2019-02-14T10:57:11.100Z,6.42
2019-02-14T10:59:39.910Z,6.34
2019-02-14T11:02:08.774Z,6.40
2019-02-14T11:04:37.641Z,6.48
2019-02-14T11:07:06.492Z,6.43
2019-02-14T11:09:35.300Z,6.48
2019-02-14T11:12:04.209Z,6.59
2019-02-14T11:14:33.149Z,6.64
2019-02-14T11:17:01.990Z,6.81
2019-02-14T11:19:30.799Z,7.04
2019-02-14T11:21:59.610Z,7.24
2019-02-14T11:24:28.402Z,7.39
2019-02-14T11:26:57.189Z,7.59
2019-02-14T11:29:25.988Z,7.64
2019-02-14T11:31:54.786Z,7.81
2019-02-14T11:34:23.655Z,7.90
2019-02-14T11:36:52.447Z,7.91
2019-02-14T11:39:21.270Z,7.96
2019-02-14T11:41:50.054Z,8.04
2019-02-14T11:44:18.869Z,8.14
2019-02-14T11:46:51.474Z,8.27
2019-02-14T11:49:18.248Z,8.26
2019-02-14T11:51:47.054Z,8.41
2019-02-14T11:54:16.658Z,8.41
2019-02-14T11:56:45.452Z,8.44
2019-02-14T11:59:14.618Z,8.57
2019-02-14T12:01:43.513Z,8.75
2019-02-14T12:04:12.403Z,8.94
2019-02-14T12:06:41.187Z,9.00
2019-02-14T12:09:10.183Z,9.08
2019-02-14T12:11:39.057Z,9.09
2019-02-14T12:14:07.932Z,9.19
2019-02-14T12:16:36.834Z,9.39
2019-02-14T12:19:05.627Z,9.58
2019-02-14T12:21:34.417Z,9.73
2019-02-14T12:24:03.207Z,9.71
2019-02-14T12:26:32.103Z,9.87
2019-02-14T12:29:00.963Z,9.84
2019-02-14T12:31:29.862Z,9.74
2019-02-14T12:33:58.734Z,9.68
2019-02-14T12:36:27.602Z,9.64
2019-02-14T12:38:56.368Z,9.70
2019-02-14T12:41:25.167Z,9.99
2019-02-14T12:43:53.946Z,10.05
2019-02-14T12:46:22.811Z,10.22
2019-02-14T12:48:51.744Z,10.49
2019-02-14T12:51:20.568Z,10.47
2019-02-14T12:53:49.346Z,10.62
2019-02-14T12:56:18.139Z,10.58
2019-02-14T12:58:47.207Z,10.49
2019-02-14T13:01:16.021Z,10.68
2019-02-14T13:03:44.803Z,10.77
2019-02-14T13:06:13.669Z,10.71
2019-02-14T13:08:42.461Z,10.92
2019-02-14T13:11:11.257Z,11.03
2019-02-14T13:13:40.055Z,10.99
2019-02-14T13:16:08.914Z,11.00
2019-02-14T13:18:37.695Z,10.84
2019-02-14T13:21:06.571Z,10.97
2019-02-14T13:23:35.378Z,11.14
2019-02-14T13:26:04.188Z,11.17
2019-02-14T13:28:33.424Z,10.98
2019-02-14T13:31:02.366Z,10.88
2019-02-14T13:33:31.370Z,10.99
2019-02-14T13:36:00.159Z,11.12
2019-02-14T13:38:28.983Z,11.24
2019-02-14T13:40:57.875Z,11.48
2019-02-14T13:43:26.657Z,11.67
2019-02-14T13:45:55.629Z,11.61
2019-02-14T13:48:24.452Z,11.66
2019-02-14T13:50:53.346Z,11.70
2019-02-14T13:53:22.246Z,11.48
2019-02-14T13:55:51.176Z,11.33
2019-02-14T13:58:20.013Z,11.19
2019-02-14T14:00:48.814Z,11.16
2019-02-14T14:03:17.675Z,11.31
2019-02-14T14:05:46.516Z,11.48
2019-02-14T14:08:15.313Z,11.43
2019-02-14T14:10:44.285Z,11.44
2019-02-14T14:13:13.140Z,11.32
2019-02-14T14:15:42.017Z,11.48
2019-02-14T14:18:10.814Z,11.63
2019-02-14T14:20:39.661Z,11.61
2019-02-14T14:23:08.444Z,11.32
2019-02-14T14:25:37.280Z,11.26
2019-02-14T14:28:06.218Z,11.36
2019-02-14T14:30:35.020Z,11.33
2019-02-14T14:33:03.899Z,11.49
2019-02-14T14:35:33.057Z,11.55
2019-02-14T14:38:01.834Z,11.57
2019-02-14T14:40:32.562Z,11.65
2019-02-14T14:43:32.872Z,11.50
2019-02-14T14:46:15.116Z,11.52
2019-02-14T14:48:44.329Z,11.60
2019-02-14T14:51:13.126Z,11.63
2019-02-14T14:53:41.950Z,11.56
2019-02-14T14:56:10.762Z,11.48
2019-02-14T14:58:39.524Z,11.36
2019-02-14T15:01:08.469Z,11.22
2019-02-14T15:03:37.264Z,11.17
2019-02-14T15:06:06.110Z,11.00
2019-02-14T15:08:34.960Z,10.95
2019-02-14T15:11:03.836Z,10.60
2019-02-14T15:13:32.628Z,10.60
2019-02-14T15:16:01.421Z,10.44
2019-02-14T15:18:30.253Z,10.35
2019-02-14T15:20:59.196Z,10.14
2019-02-14T15:23:27.990Z,10.03
2019-02-14T15:25:56.763Z,9.88
2019-02-14T15:28:25.635Z,9.83
2019-02-14T15:30:54.554Z,9.76
2019-02-14T15:33:23.412Z,9.64
2019-02-14T15:35:52.195Z,9.51
2019-02-14T15:38:21.481Z,9.41
2019-02-14T15:40:50.387Z,9.38
2019-02-14T15:43:19.244Z,9.30
2019-02-14T15:45:48.132Z,9.21
2019-02-14T15:48:16.929Z,9.11
2019-02-14T15:50:45.710Z,9.13
2019-02-14T15:53:14.562Z,9.19
2019-02-14T15:55:43.897Z,9.13
2019-02-14T15:58:12.894Z,9.08
2019-02-14T16:00:41.851Z,8.97
2019-02-14T16:03:10.719Z,8.88
2019-02-14T16:05:40.348Z,8.82
2019-02-14T16:08:10.154Z,8.70
2019-02-14T16:10:38.943Z,8.57
2019-02-14T16:13:09.796Z,8.48
2019-02-14T16:15:38.249Z,8.34
2019-02-14T16:18:07.035Z,8.22
2019-02-14T16:20:35.840Z,8.14
2019-02-14T16:23:06.462Z,8.03
2019-02-14T16:25:35.261Z,7.97
2019-02-14T16:28:04.061Z,7.81
2019-02-14T16:30:33.399Z,7.77
2019-02-14T16:33:02.622Z,7.76
2019-02-14T16:35:31.587Z,7.71
2019-02-14T16:38:00.389Z,7.62
2019-02-14T16:40:37.991Z,7.50
2019-02-14T16:42:59.742Z,7.40
2019-02-14T16:45:28.548Z,7.36
2019-02-14T16:47:57.409Z,7.20
2019-02-14T16:50:26.196Z,7.16
2019-02-14T16:52:55.134Z,6.98
2019-02-14T16:55:24.030Z,6.87
2019-02-14T16:57:53.880Z,6.75
2019-02-14T17:00:22.907Z,6.66
2019-02-14T17:02:51.974Z,6.57
2019-02-14T17:05:20.881Z,6.53
2019-02-14T17:07:49.750Z,6.52
2019-02-14T17:10:18.668Z,6.50
2019-02-14T17:12:47.530Z,6.47
2019-02-14T17:15:16.422Z,6.42
2019-02-14T17:17:45.213Z,6.38
2019-02-14T17:20:14.272Z,6.30
2019-02-14T17:22:43.110Z,6.25
2019-02-14T17:25:12.045Z,6.20
2019-02-14T17:27:40.828Z,6.10
2019-02-14T17:30:09.791Z,5.93
2019-02-14T17:32:38.791Z,5.87
2019-02-14T17:35:07.828Z,5.80
2019-02-14T17:37:36.606Z,5.74
2019-02-14T17:40:05.944Z,5.65
2019-02-14T17:42:34.740Z,5.54
2019-02-14T17:45:03.892Z,5.50
2019-02-14T17:47:32.690Z,5.60
2019-02-14T17:50:01.464Z,5.63
2019-02-14T17:52:30.339Z,5.60
2019-02-14T17:54:59.283Z,5.59
2019-02-14T17:57:28.041Z,5.62
2019-02-14T17:59:56.842Z,5.70
2019-02-14T18:02:25.717Z,5.73
2019-02-14T18:04:54.516Z,5.77
2019-02-14T18:07:23.318Z,5.64
2019-02-14T18:09:52.220Z,5.45
2019-02-14T18:12:21.196Z,5.37
2019-02-14T18:14:50.329Z,5.15
2019-02-14T18:17:19.186Z,4.97
2019-02-14T18:19:48.033Z,4.88
2019-02-14T18:22:16.813Z,4.72
2019-02-14T18:24:46.018Z,4.58
2019-02-14T18:27:14.811Z,4.54
2019-02-14T18:29:43.624Z,4.45
2019-02-14T18:32:12.493Z,4.44
2019-02-14T18:34:41.293Z,4.43
2019-02-14T18:37:10.162Z,4.40
2019-02-14T18:39:39.067Z,4.35
2019-02-14T18:42:07.857Z,4.36
2019-02-14T18:44:36.630Z,4.34
2019-02-14T18:47:05.519Z,4.26
2019-02-14T18:49:34.303Z,4.26
2019-02-14T18:52:03.168Z,4.13
2019-02-14T18:54:31.950Z,4.05
2019-02-14T18:57:00.836Z,4.03
2019-02-14T18:59:30.975Z,3.96
2019-02-14T19:01:59.866Z,3.94
2019-02-14T19:04:28.655Z,3.86
2019-02-14T19:06:58.024Z,3.77
2019-02-14T19:09:29.047Z,3.72
2019-02-14T19:11:58.119Z,3.61
2019-02-14T19:14:26.932Z,3.54
2019-02-14T19:16:55.750Z,3.49
2019-02-14T19:19:24.557Z,3.47
2019-02-14T19:21:53.376Z,3.42
2019-02-14T19:24:22.266Z,3.55
2019-02-14T19:26:51.284Z,3.59
2019-02-14T19:29:20.104Z,3.72
2019-02-14T19:31:48.928Z,3.71
2019-02-14T19:34:17.719Z,3.47
2019-02-14T19:36:46.637Z,3.18
2019-02-14T19:39:15.506Z,2.97
2019-02-14T19:41:44.372Z,2.80
2019-02-14T19:44:13.160Z,2.66
2019-02-14T19:46:41.982Z,2.55
2019-02-14T19:49:10.964Z,2.51
2019-02-14T19:51:39.759Z,2.41
2019-02-14T19:54:08.632Z,2.37
2019-02-14T19:56:37.570Z,2.40
2019-02-14T19:59:06.443Z,2.42
2019-02-14T20:01:35.264Z,2.55
2019-02-14T20:04:04.130Z,2.51
2019-02-14T20:06:32.963Z,2.54
2019-02-14T20:09:01.745Z,2.58
2019-02-14T20:11:36.552Z,2.71
2019-02-14T20:14:01.051Z,2.72
2019-02-14T20:16:30.279Z,2.69
2019-02-14T20:18:59.074Z,2.70
2019-02-14T20:21:27.865Z,2.66
2019-02-14T20:23:57.272Z,2.60
2019-02-14T20:26:26.058Z,2.56
2019-02-14T20:28:54.865Z,2.48
2019-02-14T20:31:23.649Z,2.41
2019-02-14T20:33:52.436Z,2.38
2019-02-14T20:36:21.259Z,2.25
2019-02-14T20:38:50.141Z,2.17
2019-02-14T20:41:18.994Z,2.13
2019-02-14T20:43:47.811Z,2.14
2019-02-14T20:46:16.602Z,2.17
2019-02-14T20:48:45.602Z,2.23
2019-02-14T20:51:14.489Z,2.30
2019-02-14T20:53:43.360Z,2.18
2019-02-14T20:56:12.392Z,2.08
2019-02-14T20:58:41.335Z,2.17
2019-02-14T21:01:10.183Z,2.08
2019-02-14T21:03:38.991Z,1.96
2019-02-14T21:06:08.012Z,1.97
2019-02-14T21:08:38.080Z,1.99
2019-02-14T21:11:06.951Z,1.84
2019-02-14T21:13:35.740Z,1.86
2019-02-14T21:16:04.728Z,1.85
2019-02-14T21:18:33.644Z,1.92
2019-02-14T21:21:02.681Z,2.10
2019-02-14T21:23:31.629Z,1.90
2019-02-14T21:26:00.563Z,1.76
2019-02-14T21:28:29.660Z,1.62
2019-02-14T21:30:58.778Z,1.56
2019-02-14T21:33:27.938Z,1.41
2019-02-14T21:35:57.004Z,1.43
2019-02-14T21:38:26.164Z,1.44
2019-02-14T21:40:55.037Z,1.46
2019-02-14T21:43:23.883Z,1.51
2019-02-14T21:45:52.765Z,1.47
2019-02-14T21:48:21.647Z,1.32
2019-02-14T21:50:50.433Z,1.19
2019-02-14T21:53:19.247Z,1.10
2019-02-14T21:55:48.037Z,1.00
2019-02-14T21:58:16.846Z,0.98
2019-02-14T22:02:39.346Z,1.15
2019-02-14T22:05:09.028Z,1.18
2019-02-14T22:07:37.972Z,1.11
2019-02-14T22:10:07.552Z,1.11
2019-02-14T22:12:40.830Z,1.07
2019-02-14T22:15:09.551Z,1.13
2019-02-14T22:17:38.500Z,1.19
2019-02-14T22:20:07.725Z,1.19
2019-02-14T22:22:36.502Z,1.14
2019-02-14T22:25:05.626Z,1.06
2019-02-14T22:27:35.280Z,0.98
2019-02-14T22:30:06.311Z,1.06
2019-02-14T22:32:35.565Z,1.15
2019-02-14T22:35:04.685Z,1.23
2019-02-14T22:37:33.544Z,1.32
2019-02-14T22:40:02.373Z,1.52
2019-02-14T22:42:31.295Z,1.67
2019-02-14T22:45:00.119Z,1.94
2019-02-14T22:47:28.993Z,1.86
2019-02-14T22:49:57.931Z,1.61
2019-02-14T22:52:26.798Z,1.36
2019-02-14T22:54:55.762Z,1.20
2019-02-14T22:57:24.550Z,1.13
2019-02-14T22:59:53.354Z,0.95
2019-02-14T23:02:22.459Z,0.66
2019-02-14T23:04:51.281Z,0.41
2019-02-14T23:07:20.083Z,0.41
2019-02-14T23:09:49.033Z,0.37
2019-02-14T23:12:17.912Z,0.23
2019-02-14T23:14:46.740Z,0.02
2019-02-14T23:17:15.515Z,0.00
2019-02-14T23:19:44.333Z,-0.01
2019-02-14T23:22:13.137Z,0.04
2019-02-14T23:24:41.940Z,0.01
2019-02-14T23:27:10.740Z,0.06
2019-02-14T23:29:39.538Z,0.17
2019-02-14T23:32:08.349Z,0.19
2019-02-14T23:34:38.074Z,0.18
2019-02-14T23:37:06.857Z,0.14
2019-02-14T23:39:35.648Z,0.11
2019-02-14T23:42:04.650Z,0.11
2019-02-14T23:44:33.480Z,0.07
2019-02-14T23:47:02.271Z,0.02
2019-02-14T23:49:31.142Z,0.05
2019-02-14T23:51:59.951Z,0.00
2019-02-14T23:54:28.747Z,-0.04
2019-02-14T23:56:57.565Z,-0.05
2019-02-14T23:59:26.516Z,-0.01
